Aérodrome :
LOGIN :

S'inscrire | Disclaimer

   EN    FR    IT 

 










Légende :    VFR   VFR Marginal   IFR   IFR Intensif   IFR Très Intensif
Visi : 
Plafond : 
>= 8 km
>= 3000ft
5 à 8 km
1000 à 3000 ft
1500m à 5 km
500 à 1000 ft
800 à 1500m
200 à 500 ft
< 800m
< 200 ft
Symboles :   Orages  Brouillard  Fortes neiges  Fortes précipitations  Vent > 20 kt
SIGMETs :   Divers  Orages  Givrage  Turbulence  Onde Orograph.  Cendres Volcan.






- Altitude de l'aérodrome : 502 ft
- Code IATA : ORK


EICK - Cork

DERNIER METAR :
  • 200500Z 23004KT 9999 FEW016 02/00 Q1047 NOSIG

METARs EXPIRÉS :
  • 200430Z 25005KT 9999 FEW016 03/02 Q1047 NOSIG
  • 200400Z 23004KT 9999 FEW016 02/02 Q1047 NOSIG
  • 200330Z 20004KT 9999 FEW016 01/00 Q1047 NOSIG
  • 200300Z 23005KT 9999 FEW016 01/00 Q1047 NOSIG
  • 200230Z 23004KT 9999 FEW016 02/01 Q1047 NOSIG

TAF TAF EICK
Valide du 20 à 00h jusqu'au 21 à 00h UTC


192300Z 2000/2024 21005KT 9999 FEW020
TEMPO 2004/2011 3000 BR SCT002
BECMG 2006/2008 VRB03KT
PROB30
TEMPO 2006/2011 0500 FG BKN002
BECMG 2013/2015 22007KT
TEMPO 2017/2024 3000 BR
BECMG 2018/2020 VRB03KT
PROB40
TEMPO 2019/2024 0400 FG BKN002



MET'MAP, la Météo Aéronautique d'un coup d'oeil ! - Copyright ORBIFLY Décembre 2007 - Disclaimer

ORBIFLY MET'MAP TEAM :

Programmation & Développement : Alexandra Zaïnal
Sur une idée originale de : Baudouin d'Aumeries
Assistance à la programmation : Marc-Olivier Méhu
Soutien technique & logistique : Manuel Goepfert

Contact : metmap@orbifly.com




SOURCES & CREDITS :

   NOAA